Time;durP1;ratioP1;P1;durP2;ratioP2;P2;SDS_P1;SDS_P2;PMS_P1;PMS_P2;Temp;Humidity;BMP_temperature;BMP_pressure;BME280_temperature;BME280_humidity;BME280_pressure;Samples;Min_cycle;Max_cycle;Signal;HPM_P1;HPM_P2
2023/04/12 00:01:14;;;;;;;6.13;2.73;;;;;;;;;;4996385;28;20183;-67
2023/04/12 00:03:40;;;;;;;5.60;2.70;;;;;;;;;;5014143;28;20176;-68
2023/04/12 00:06:06;;;;;;;6.13;2.90;;;;;;;;;;5014176;28;20190;-68
2023/04/12 00:08:33;;;;;;;7.13;3.00;;;;;;;;;;5013933;28;20234;-67
2023/04/12 00:11:00;;;;;;;10.10;3.33;;;;;;;;;;5013965;28;20618;-66
2023/04/12 00:13:26;;;;;;;6.53;2.33;;;;;;;;;;5013828;28;20180;-67
2023/04/12 00:15:52;;;;;;;10.50;2.53;;;;;;;;;;5013892;28;20234;-67
2023/04/12 00:18:18;;;;;;;4.23;2.13;;;;;;;;;;5013662;28;20212;-67
2023/04/12 00:20:44;;;;;;;5.77;2.30;;;;;;;;;;5013509;28;20213;-67
2023/04/12 00:23:11;;;;;;;8.77;2.37;;;;;;;;;;5013641;28;20230;-67
2023/04/12 00:25:38;;;;;;;8.80;3.30;;;;;;;;;;5013704;28;20259;-66
2023/04/12 00:28:04;;;;;;;9.87;3.00;;;;;;;;;;5014185;28;20175;-66
2023/04/12 00:30:30;;;;;;;12.00;2.97;;;;;;;;;;5013563;28;20279;-68
2023/04/12 00:32:56;;;;;;;8.10;3.13;;;;;;;;;;4995954;28;20369;-67
2023/04/12 00:35:22;;;;;;;9.77;3.20;;;;;;;;;;5013649;28;20179;-68
2023/04/12 00:37:48;;;;;;;7.27;3.10;;;;;;;;;;5013670;28;20616;-66
2023/04/12 00:40:14;;;;;;;8.20;3.03;;;;;;;;;;5014287;28;20645;-66
2023/04/12 00:42:40;;;;;;;11.87;3.27;;;;;;;;;;5013850;28;20266;-66
2023/04/12 00:45:07;;;;;;;10.77;3.27;;;;;;;;;;5013818;28;20167;-67
2023/04/12 00:47:35;;;;;;;8.13;3.53;;;;;;;;;;5013391;28;20176;-67
2023/04/12 00:50:02;;;;;;;9.73;2.87;;;;;;;;;;5013775;28;20234;-66
2023/04/12 00:52:32;;;;;;;10.67;4.83;;;;;;;;;;5013805;28;20183;-66
2023/04/12 00:54:58;;;;;;;15.07;4.50;;;;;;;;;;4996334;28;20176;-66
2023/04/12 00:57:24;;;;;;;10.00;4.10;;;;;;;;;;5014285;28;20700;-67
2023/04/12 00:59:50;;;;;;;12.83;3.90;;;;;;;;;;5013585;28;20207;-67
2023/04/12 01:02:17;;;;;;;6.10;2.73;;;;;;;;;;4995684;28;20218;-66
2023/04/12 01:04:43;;;;;;;10.63;3.67;;;;;;;;;;5013285;28;20230;-66
2023/04/12 01:07:18;;;;;;;5.10;3.10;;;;;;;;;;5013125;28;20258;-67
2023/04/12 01:09:56;;;;;;;8.77;3.77;;;;;;;;;;5013327;28;20207;-64
2023/04/12 01:12:45;;;;;;;11.70;3.27;;;;;;;;;;4995642;28;20175;-66
2023/04/12 01:15:12;;;;;;;10.63;3.23;;;;;;;;;;5013131;28;20211;-66
2023/04/12 01:17:42;;;;;;;6.47;3.10;;;;;;;;;;5013016;28;20210;-66
2023/04/12 01:20:15;;;;;;;6.33;3.00;;;;;;;;;;5013028;28;20211;-67
2023/04/12 01:23:13;;;;;;;11.97;3.53;;;;;;;;;;5013074;28;20191;-66
2023/04/12 01:26:02;;;;;;;11.03;3.97;;;;;;;;;;4953290;28;20662;-65
2023/04/12 01:28:32;;;;;;;6.73;3.23;;;;;;;;;;4985529;28;20238;-65
2023/04/12 01:30:59;;;;;;;13.17;4.27;;;;;;;;;;4995221;28;20258;-67
2023/04/12 01:33:30;;;;;;;9.93;3.80;;;;;;;;;;5012995;28;20204;-66
2023/04/12 01:35:56;;;;;;;14.63;4.43;;;;;;;;;;5012872;28;20220;-67
2023/04/12 01:38:23;;;;;;;15.00;4.83;;;;;;;;;;5015780;28;20231;-67
2023/04/12 01:40:49;;;;;;;12.93;4.50;;;;;;;;;;5016829;28;20266;-66
2023/04/12 01:43:15;;;;;;;14.27;4.63;;;;;;;;;;4998982;28;20179;-66
2023/04/12 01:45:41;;;;;;;11.87;4.13;;;;;;;;;;4999020;28;20229;-67
2023/04/12 01:48:08;;;;;;;8.37;3.40;;;;;;;;;;5016515;28;20219;-66
2023/04/12 01:50:37;;;;;;;14.03;3.73;;;;;;;;;;4998764;28;20334;-67
2023/04/12 01:53:08;;;;;;;12.90;4.67;;;;;;;;;;5016944;28;20183;-67
2023/04/12 01:55:36;;;;;;;8.10;3.70;;;;;;;;;;5016976;28;20164;-67
2023/04/12 01:58:02;;;;;;;7.90;3.43;;;;;;;;;;5016292;28;20207;-67
2023/04/12 02:00:29;;;;;;;9.37;3.00;;;;;;;;;;5016125;28;20570;-66
2023/04/12 02:02:56;;;;;;;11.70;4.80;;;;;;;;;;5016528;28;20228;-67
2023/04/12 02:05:22;;;;;;;10.53;3.30;;;;;;;;;;5016157;28;20204;-65
2023/04/12 02:07:48;;;;;;;7.27;3.20;;;;;;;;;;5016179;28;20183;-66
2023/04/12 02:10:14;;;;;;;10.93;4.00;;;;;;;;;;4998453;28;20271;-65
2023/04/12 02:12:41;;;;;;;15.43;4.03;;;;;;;;;;5016424;28;20175;-66
2023/04/12 02:15:07;;;;;;;16.67;4.67;;;;;;;;;;5016026;28;20246;-67
2023/04/12 02:17:36;;;;;;;14.73;6.60;;;;;;;;;;5015936;28;20737;-65
2023/04/12 02:20:02;;;;;;;23.90;11.20;;;;;;;;;;5016036;28;20234;-67
2023/04/12 02:22:28;;;;;;;46.10;17.53;;;;;;;;;;5015865;28;20179;-67
2023/04/12 02:24:54;;;;;;;34.47;15.47;;;;;;;;;;4998223;28;20184;-66
2023/04/12 02:27:20;;;;;;;20.33;11.07;;;;;;;;;;4998192;28;20663;-67
2023/04/12 02:29:46;;;;;;;18.73;8.33;;;;;;;;;;5015752;28;20719;-66
2023/04/12 02:32:12;;;;;;;13.40;7.00;;;;;;;;;;5015999;28;20191;-66
2023/04/12 02:34:38;;;;;;;13.43;6.10;;;;;;;;;;5015725;28;20183;-66
2023/04/12 02:37:06;;;;;;;15.60;6.40;;;;;;;;;;5015634;28;20191;-66
2023/04/12 02:39:33;;;;;;;14.87;6.20;;;;;;;;;;5015669;28;20223;-67
2023/04/12 02:42:00;;;;;;;14.77;6.73;;;;;;;;;;5015626;28;20168;-65
2023/04/12 02:44:28;;;;;;;15.57;7.00;;;;;;;;;;5015833;28;20176;-67
2023/04/12 02:46:55;;;;;;;14.77;5.93;;;;;;;;;;5015509;28;20550;-67
2023/04/12 02:49:21;;;;;;;12.77;5.80;;;;;;;;;;5015303;28;20254;-67
2023/04/12 02:51:46;;;;;;;13.57;5.63;;;;;;;;;;5015470;28;20184;-67
2023/04/12 02:54:13;;;;;;;9.97;4.43;;;;;;;;;;5015605;28;20179;-66
2023/04/12 02:56:39;;;;;;;8.70;3.77;;;;;;;;;;4998000;28;20179;-65
2023/04/12 02:59:05;;;;;;;13.43;4.53;;;;;;;;;;5015062;28;20207;-65
2023/04/12 03:01:32;;;;;;;9.53;4.87;;;;;;;;;;5015224;28;20167;-68
2023/04/12 03:03:58;;;;;;;12.17;5.17;;;;;;;;;;4997578;28;20208;-65
2023/04/12 03:06:24;;;;;;;11.77;5.03;;;;;;;;;;5015080;28;20260;-67
2023/04/12 03:08:50;;;;;;;12.50;4.23;;;;;;;;;;5014914;28;20267;-66
2023/04/12 03:11:16;;;;;;;12.33;5.60;;;;;;;;;;4997401;28;20195;-66
2023/04/12 03:13:42;;;;;;;9.07;4.83;;;;;;;;;;5014911;28;20191;-65
2023/04/12 03:16:22;;;;;;;11.70;6.10;;;;;;;;;;5015363;28;20180;-67
2023/04/12 03:18:49;;;;;;;12.43;5.00;;;;;;;;;;4997533;28;20357;-67
2023/04/12 03:21:15;;;;;;;11.00;4.77;;;;;;;;;;5014907;28;20234;-67
2023/04/12 03:23:41;;;;;;;7.70;3.77;;;;;;;;;;5014672;28;20180;-66
2023/04/12 03:26:07;;;;;;;8.97;3.53;;;;;;;;;;4997193;28;20180;-67
2023/04/12 03:28:33;;;;;;;6.43;3.17;;;;;;;;;;5015072;28;20218;-67
2023/04/12 03:30:59;;;;;;;9.60;4.10;;;;;;;;;;4997080;28;20231;-67
2023/04/12 03:33:25;;;;;;;10.27;4.00;;;;;;;;;;5015142;28;20188;-66
2023/04/12 03:35:51;;;;;;;13.20;6.93;;;;;;;;;;5014614;28;20188;-67
2023/04/12 03:38:17;;;;;;;13.03;6.80;;;;;;;;;;5014784;28;20199;-66
2023/04/12 03:40:43;;;;;;;13.40;5.77;;;;;;;;;;5014872;28;20540;-67
2023/04/12 03:43:09;;;;;;;13.43;5.97;;;;;;;;;;5015040;28;20194;-66
2023/04/12 03:45:35;;;;;;;10.37;5.03;;;;;;;;;;5014728;28;20183;-68
2023/04/12 03:48:01;;;;;;;11.07;4.67;;;;;;;;;;5014790;28;20263;-66
2023/04/12 03:50:28;;;;;;;9.43;4.27;;;;;;;;;;5014708;28;20234;-67
2023/04/12 03:52:54;;;;;;;8.77;4.00;;;;;;;;;;5014571;28;20180;-66
2023/04/12 03:55:20;;;;;;;6.07;3.53;;;;;;;;;;5038480;23;20184;-67
2023/04/12 03:57:47;;;;;;;7.57;3.47;;;;;;;;;;4996472;28;20188;-67
2023/04/12 04:00:13;;;;;;;7.13;3.07;;;;;;;;;;4995960;28;20590;-67
2023/04/12 04:02:39;;;;;;;8.40;3.20;;;;;;;;;;5013627;28;20175;-67
2023/04/12 04:05:05;;;;;;;8.07;3.30;;;;;;;;;;4996196;28;20176;-68
2023/04/12 04:07:31;;;;;;;6.70;3.07;;;;;;;;;;5014333;28;20200;-67
2023/04/12 04:09:57;;;;;;;5.83;2.57;;;;;;;;;;4996316;28;20194;-67
2023/04/12 04:12:23;;;;;;;7.57;2.40;;;;;;;;;;4996270;28;20278;-67
2023/04/12 04:14:49;;;;;;;6.07;2.23;;;;;;;;;;4996108;28;20682;-67
2023/04/12 04:17:15;;;;;;;7.10;2.57;;;;;;;;;;5013671;28;20214;-67
2023/04/12 04:19:41;;;;;;;3.80;2.30;;;;;;;;;;5013725;28;20182;-67
2023/04/12 04:22:08;;;;;;;5.30;2.20;;;;;;;;;;5013732;28;20258;-67
2023/04/12 04:24:37;;;;;;;4.40;2.00;;;;;;;;;;4996118;28;20561;-69
2023/04/12 04:27:03;;;;;;;6.87;2.73;;;;;;;;;;5013671;28;20191;-66
2023/04/12 04:29:30;;;;;;;6.77;3.20;;;;;;;;;;4996035;28;20665;-66
2023/04/12 04:31:56;;;;;;;4.07;2.07;;;;;;;;;;4995974;28;20279;-69
2023/04/12 04:34:24;;;;;;;4.57;2.30;;;;;;;;;;4995914;28;20179;-68
2023/04/12 04:36:50;;;;;;;4.47;2.07;;;;;;;;;;5013444;28;20675;-66
2023/04/12 04:39:16;;;;;;;6.13;2.67;;;;;;;;;;4996691;28;20686;-69
2023/04/12 04:41:43;;;;;;;4.10;2.40;;;;;;;;;;5013457;28;20179;-66
2023/04/12 04:44:09;;;;;;;6.00;3.47;;;;;;;;;;4995727;28;20187;-68
2023/04/12 04:46:36;;;;;;;8.50;2.20;;;;;;;;;;5013421;28;20218;-66
2023/04/12 04:49:03;;;;;;;6.00;2.40;;;;;;;;;;5013560;28;20176;-68
2023/04/12 04:51:29;;;;;;;4.53;2.40;;;;;;;;;;5013581;28;20188;-68
2023/04/12 04:53:55;;;;;;;3.37;2.43;;;;;;;;;;5013475;28;20263;-68
2023/04/12 04:56:22;;;;;;;3.73;2.33;;;;;;;;;;5013214;28;20215;-67
2023/04/12 04:58:49;;;;;;;9.07;4.83;;;;;;;;;;4995543;28;20696;-68
2023/04/12 05:01:15;;;;;;;13.70;8.63;;;;;;;;;;5013511;28;20187;-68
2023/04/12 05:03:43;;;;;;;4.63;2.80;;;;;;;;;;5013287;28;20176;-68
2023/04/12 05:06:09;;;;;;;7.50;3.70;;;;;;;;;;5013331;28;20195;-68
2023/04/12 05:08:35;;;;;;;6.17;2.80;;;;;;;;;;4995507;28;20184;-68
2023/04/12 05:11:01;;;;;;;4.67;2.63;;;;;;;;;;5013550;28;20258;-68
2023/04/12 05:13:27;;;;;;;6.53;2.50;;;;;;;;;;5016249;28;20650;-68
2023/04/12 05:15:53;;;;;;;14.80;8.83;;;;;;;;;;5017310;28;20260;-68
2023/04/12 05:18:19;;;;;;;9.63;3.07;;;;;;;;;;4999489;28;20651;-68
2023/04/12 05:20:47;;;;;;;5.80;2.97;;;;;;;;;;5017576;28;20254;-68
2023/04/12 05:23:13;;;;;;;6.93;2.83;;;;;;;;;;5017107;28;20175;-68
2023/04/12 05:25:43;;;;;;;5.60;2.97;;;;;;;;;;5017446;28;20196;-68
2023/04/12 05:28:12;;;;;;;5.23;2.63;;;;;;;;;;5017094;28;20164;-68
2023/04/12 05:30:39;;;;;;;10.27;3.67;;;;;;;;;;4999941;28;20229;-68
2023/04/12 05:33:05;;;;;;;6.97;3.60;;;;;;;;;;4999493;28;20179;-69
2023/04/12 05:35:31;;;;;;;7.13;3.53;;;;;;;;;;5017031;28;20199;-68
2023/04/12 05:37:57;;;;;;;7.83;3.70;;;;;;;;;;4999057;28;20212;-68
2023/04/12 05:40:23;;;;;;;9.97;3.93;;;;;;;;;;5017372;28;20198;-68
2023/04/12 05:42:49;;;;;;;9.63;3.70;;;;;;;;;;4999030;28;20486;-69
2023/04/12 05:45:15;;;;;;;6.27;3.40;;;;;;;;;;4999015;28;20642;-69
2023/04/12 05:47:40;;;;;;;6.63;3.60;;;;;;;;;;5016597;28;20659;-69
2023/04/12 05:50:07;;;;;;;7.87;3.67;;;;;;;;;;5016572;28;20230;-69
2023/04/12 05:52:33;;;;;;;5.87;3.63;;;;;;;;;;5016498;28;20180;-68
2023/04/12 05:54:59;;;;;;;6.63;3.70;;;;;;;;;;4998778;28;20622;-68
2023/04/12 05:57:25;;;;;;;8.07;3.40;;;;;;;;;;5016263;28;20298;-68
2023/04/12 05:59:51;;;;;;;4.57;3.70;;;;;;;;;;5016447;28;20176;-68
2023/04/12 06:02:17;;;;;;;6.73;3.30;;;;;;;;;;5016305;28;20176;-68
2023/04/12 06:04:43;;;;;;;9.50;3.53;;;;;;;;;;4998694;28;20188;-68
2023/04/12 06:07:09;;;;;;;11.77;4.27;;;;;;;;;;5016109;28;20200;-68
2023/04/12 06:09:35;;;;;;;7.00;3.90;;;;;;;;;;5016232;28;20203;-68
2023/04/12 06:12:02;;;;;;;9.67;3.67;;;;;;;;;;4998465;28;20219;-69
2023/04/12 06:14:27;;;;;;;6.30;4.30;;;;;;;;;;5015938;28;20658;-69
2023/04/12 06:16:53;;;;;;;8.13;3.77;;;;;;;;;;5016084;28;20231;-68
2023/04/12 06:19:20;;;;;;;4.83;3.60;;;;;;;;;;5016170;28;20226;-68
2023/04/12 06:21:46;;;;;;;5.80;3.87;;;;;;;;;;5019136;28;20206;-68
2023/04/12 06:24:12;;;;;;;9.97;3.83;;;;;;;;;;4997660;28;20654;-69
2023/04/12 06:26:38;;;;;;;6.57;3.77;;;;;;;;;;4998258;28;20204;-69
2023/04/12 06:29:04;;;;;;;5.63;3.70;;;;;;;;;;4998155;28;20180;-69
2023/04/12 06:31:30;;;;;;;8.47;4.33;;;;;;;;;;5015824;28;20184;-69
2023/04/12 06:33:56;;;;;;;4.90;3.77;;;;;;;;;;5015970;28;20267;-68
2023/04/12 06:36:22;;;;;;;6.03;3.87;;;;;;;;;;5015577;28;20295;-69
2023/04/12 06:38:50;;;;;;;4.73;3.57;;;;;;;;;;4998006;28;20204;-69
2023/04/12 06:41:16;;;;;;;6.47;4.23;;;;;;;;;;5015514;28;20267;-68
2023/04/12 06:43:42;;;;;;;8.83;4.37;;;;;;;;;;4997932;28;20270;-69
2023/04/12 06:46:08;;;;;;;6.97;4.10;;;;;;;;;;5015736;28;20203;-68
2023/04/12 06:48:34;;;;;;;6.83;4.20;;;;;;;;;;5015544;28;20180;-68
2023/04/12 06:51:00;;;;;;;6.10;4.00;;;;;;;;;;5015634;28;20215;-68
2023/04/12 06:53:26;;;;;;;5.73;3.83;;;;;;;;;;4997913;28;20194;-68
2023/04/12 06:55:52;;;;;;;4.97;4.07;;;;;;;;;;4997739;28;20227;-68
2023/04/12 06:58:18;;;;;;;8.20;3.87;;;;;;;;;;5015433;28;20204;-68
2023/04/12 07:00:44;;;;;;;7.83;4.50;;;;;;;;;;4997766;28;20638;-68
2023/04/12 07:03:10;;;;;;;6.40;3.90;;;;;;;;;;4998138;28;20184;-68
2023/04/12 07:05:40;;;;;;;6.40;4.23;;;;;;;;;;4997629;28;20200;-68
2023/04/12 07:08:08;;;;;;;5.47;4.33;;;;;;;;;;4997422;28;20720;-68
2023/04/12 07:10:35;;;;;;;6.00;3.90;;;;;;;;;;5015180;28;20179;-69
2023/04/12 07:13:05;;;;;;;7.63;4.97;;;;;;;;;;5000653;28;20210;-70
2023/04/12 07:15:31;;;;;;;6.50;4.30;;;;;;;;;;4997294;28;20233;-69
2023/04/12 07:17:57;;;;;;;6.40;4.10;;;;;;;;;;5014889;28;20290;-68
2023/04/12 07:20:22;;;;;;;5.63;4.30;;;;;;;;;;5014778;28;20176;-68
2023/04/12 07:22:48;;;;;;;6.40;4.30;;;;;;;;;;4997174;28;20179;-68
2023/04/12 07:25:14;;;;;;;5.97;4.40;;;;;;;;;;4997162;28;20183;-69
2023/04/12 07:27:40;;;;;;;7.40;4.30;;;;;;;;;;4997092;28;20195;-69
2023/04/12 07:30:07;;;;;;;10.30;4.63;;;;;;;;;;5014625;28;20188;-69
2023/04/12 07:32:32;;;;;;;4.60;4.03;;;;;;;;;;5014567;28;20191;-69
2023/04/12 07:34:58;;;;;;;5.63;4.00;;;;;;;;;;5014483;28;20188;-68
2023/04/12 07:37:24;;;;;;;5.27;4.77;;;;;;;;;;5015491;28;20219;-68
2023/04/12 07:39:51;;;;;;;7.80;5.10;;;;;;;;;;5014662;28;20204;-68
2023/04/12 07:42:17;;;;;;;6.57;4.53;;;;;;;;;;5014717;28;20243;-69
2023/04/12 07:44:43;;;;;;;6.07;4.70;;;;;;;;;;5014594;28;20172;-68
2023/04/12 07:47:09;;;;;;;6.73;4.43;;;;;;;;;;4996619;28;20200;-69
2023/04/12 07:49:36;;;;;;;5.43;3.93;;;;;;;;;;5014306;28;20172;-68
2023/04/12 07:52:02;;;;;;;7.43;4.83;;;;;;;;;;5014326;28;20704;-69
2023/04/12 07:54:28;;;;;;;6.67;4.83;;;;;;;;;;5014215;28;20175;-69
2023/04/12 07:57:04;;;;;;;8.67;5.33;;;;;;;;;;4996405;28;20756;-69
2023/04/12 07:59:30;;;;;;;7.67;4.63;;;;;;;;;;4996476;28;20214;-69
2023/04/12 08:01:56;;;;;;;6.23;4.33;;;;;;;;;;4996514;28;20226;-68
2023/04/12 08:04:23;;;;;;;9.93;5.90;;;;;;;;;;5015109;28;20274;-69
2023/04/12 08:06:48;;;;;;;6.43;5.40;;;;;;;;;;4996355;28;20195;-69
2023/04/12 08:09:14;;;;;;;9.97;5.50;;;;;;;;;;5014227;28;20717;-68
2023/04/12 08:11:41;;;;;;;7.63;5.53;;;;;;;;;;5013873;28;20263;-68
2023/04/12 08:14:07;;;;;;;10.47;7.30;;;;;;;;;;4996247;28;20183;-68
2023/04/12 08:16:33;;;;;;;14.17;8.27;;;;;;;;;;4996265;28;20253;-68
2023/04/12 08:18:59;;;;;;;10.27;7.37;;;;;;;;;;5013786;28;20585;-68
2023/04/12 08:21:26;;;;;;;11.53;8.57;;;;;;;;;;5013838;28;20574;-68
2023/04/12 08:23:52;;;;;;;9.27;7.67;;;;;;;;;;5013733;28;20262;-68
2023/04/12 08:26:18;;;;;;;13.63;10.00;;;;;;;;;;4996172;28;20693;-68
2023/04/12 08:28:44;;;;;;;10.30;8.67;;;;;;;;;;4996107;28;20187;-69
2023/04/12 08:31:10;;;;;;;13.17;9.60;;;;;;;;;;5013942;28;20201;-69
2023/04/12 08:33:36;;;;;;;11.03;8.80;;;;;;;;;;4996258;28;20194;-69
2023/04/12 08:36:02;;;;;;;10.27;8.40;;;;;;;;;;4996182;28;20204;-68
2023/04/12 08:38:28;;;;;;;14.70;8.90;;;;;;;;;;4995930;28;20302;-68
2023/04/12 08:40:56;;;;;;;11.03;7.80;;;;;;;;;;5014211;28;20176;-68
2023/04/12 08:43:22;;;;;;;12.17;7.80;;;;;;;;;;5014175;28;20179;-68
2023/04/12 08:45:49;;;;;;;9.03;8.10;;;;;;;;;;5013289;28;20196;-68
2023/04/12 08:48:16;;;;;;;11.50;9.87;;;;;;;;;;4995325;28;20184;-68
2023/04/12 08:50:43;;;;;;;15.53;11.13;;;;;;;;;;4995771;28;20184;-68
2023/04/12 08:53:10;;;;;;;16.43;12.37;;;;;;;;;;5014267;28;20180;-67
2023/04/12 08:55:36;;;;;;;17.13;12.07;;;;;;;;;;5024386;28;20216;-68
2023/04/12 08:58:06;;;;;;;13.50;10.30;;;;;;;;;;5013927;28;20728;-68
2023/04/12 09:00:32;;;;;;;14.97;10.70;;;;;;;;;;4995741;28;20296;-68
2023/04/12 09:02:59;;;;;;;15.70;11.03;;;;;;;;;;4995706;28;20258;-68
2023/04/12 09:05:29;;;;;;;15.93;13.00;;;;;;;;;;4995590;28;20195;-68
2023/04/12 09:07:55;;;;;;;16.73;12.40;;;;;;;;;;5013210;28;20187;-68
2023/04/12 09:10:41;;;;;;;18.83;14.20;;;;;;;;;;5013259;28;20555;-68
2023/04/12 09:13:08;;;;;;;25.77;16.50;;;;;;;;;;5013160;28;20186;-68
2023/04/12 09:15:34;;;;;;;19.00;12.90;;;;;;;;;;4995512;28;20686;-68
2023/04/12 09:18:02;;;;;;;12.23;9.77;;;;;;;;;;5013366;28;20208;-68
2023/04/12 09:20:29;;;;;;;8.50;7.70;;;;;;;;;;5013014;28;20188;-68
2023/04/12 09:22:55;;;;;;;7.00;5.90;;;;;;;;;;5013327;28;20263;-68
2023/04/12 09:25:51;;;;;;;7.03;6.30;;;;;;;;;;4995311;28;20207;-68
2023/04/12 09:28:19;;;;;;;6.97;6.37;;;;;;;;;;4983866;28;20188;-67
2023/04/12 09:30:50;;;;;;;7.67;6.97;;;;;;;;;;5013246;28;20179;-67
2023/04/12 09:33:16;;;;;;;6.43;5.83;;;;;;;;;;5012985;28;20167;-67
2023/04/12 09:35:42;;;;;;;7.80;6.87;;;;;;;;;;5013343;28;20195;-67
2023/04/12 09:38:09;;;;;;;9.03;7.37;;;;;;;;;;4995233;28;20207;-67
2023/04/12 09:40:35;;;;;;;7.87;7.17;;;;;;;;;;4995444;28;20176;-68
2023/04/12 09:43:02;;;;;;;8.97;7.90;;;;;;;;;;5012998;28;20176;-67
2023/04/12 09:45:30;;;;;;;9.43;7.93;;;;;;;;;;4996373;28;20223;-67
2023/04/12 09:47:56;;;;;;;10.13;8.83;;;;;;;;;;4996120;28;20654;-67
2023/04/12 09:50:27;;;;;;;13.27;10.30;;;;;;;;;;5012973;28;20263;-67
2023/04/12 09:52:53;;;;;;;12.43;10.67;;;;;;;;;;4995175;28;20218;-66
2023/04/12 09:55:21;;;;;;;9.83;8.60;;;;;;;;;;4994886;28;20195;-67
2023/04/12 09:57:49;;;;;;;8.23;7.17;;;;;;;;;;4995974;28;20257;-67
2023/04/12 10:00:16;;;;;;;7.30;6.10;;;;;;;;;;5016471;28;20592;-67
2023/04/12 10:02:43;;;;;;;9.10;6.43;;;;;;;;;;4998815;28;20203;-67
2023/04/12 10:05:13;;;;;;;6.20;5.60;;;;;;;;;;5016269;28;20179;-68
2023/04/12 10:07:43;;;;;;;5.60;4.93;;;;;;;;;;4998582;28;20270;-67
2023/04/12 10:10:13;;;;;;;5.77;4.03;;;;;;;;;;4998655;28;20222;-67
2023/04/12 10:12:40;;;;;;;4.40;3.83;;;;;;;;;;4998520;28;20188;-67
2023/04/12 10:15:11;;;;;;;3.80;2.80;;;;;;;;;;4998465;28;20183;-67
2023/04/12 10:17:38;;;;;;;3.73;3.43;;;;;;;;;;5017486;28;20589;-67
2023/04/12 10:20:04;;;;;;;3.07;2.77;;;;;;;;;;5015963;28;20203;-68
2023/04/12 10:22:31;;;;;;;4.37;3.00;;;;;;;;;;4998413;28;20274;-67
2023/04/12 10:24:59;;;;;;;3.77;2.70;;;;;;;;;;4998352;28;20230;-67
2023/04/12 10:27:26;;;;;;;3.03;2.60;;;;;;;;;;5015812;28;20571;-67
2023/04/12 10:29:52;;;;;;;3.07;2.07;;;;;;;;;;5016010;28;20172;-67
2023/04/12 10:32:22;;;;;;;4.20;2.10;;;;;;;;;;5015682;28;20669;-66
2023/04/12 10:34:52;;;;;;;2.83;1.97;;;;;;;;;;4999188;28;20184;-68
2023/04/12 10:37:18;;;;;;;4.80;2.43;;;;;;;;;;4998234;28;20196;-66
2023/04/12 10:39:46;;;;;;;9.97;2.93;;;;;;;;;;5015544;28;20175;-67
2023/04/12 10:42:23;;;;;;;9.00;2.80;;;;;;;;;;5015513;28;20168;-67
2023/04/12 10:44:53;;;;;;;8.33;3.30;;;;;;;;;;5015663;28;20222;-68
2023/04/12 10:47:39;;;;;;;10.23;3.03;;;;;;;;;;5015534;28;20211;-67
2023/04/12 10:50:24;;;;;;;11.83;3.73;;;;;;;;;;5005207;28;20254;-68
2023/04/12 10:53:08;;;;;;;10.93;3.50;;;;;;;;;;5016002;28;20579;-67
2023/04/12 10:55:35;;;;;;;11.53;3.77;;;;;;;;;;5015074;28;20214;-67
2023/04/12 10:58:01;;;;;;;15.33;3.20;;;;;;;;;;5015666;28;20720;-67
2023/04/12 11:00:47;;;;;;;9.23;3.07;;;;;;;;;;5015291;28;20213;-67
2023/04/12 11:03:13;;;;;;;13.23;3.90;;;;;;;;;;4997499;28;20180;-67
2023/04/12 11:05:56;;;;;;;13.33;3.30;;;;;;;;;;5015391;28;20191;-67
2023/04/12 11:08:23;;;;;;;10.13;3.37;;;;;;;;;;5015168;28;20175;-67
2023/04/12 11:10:49;;;;;;;11.57;3.30;;;;;;;;;;4997210;28;20210;-67
2023/04/12 11:13:15;;;;;;;11.13;3.70;;;;;;;;;;5015080;28;20186;-67
2023/04/12 11:15:42;;;;;;;7.80;2.73;;;;;;;;;;5015011;28;20196;-67
2023/04/12 11:18:08;;;;;;;11.90;3.50;;;;;;;;;;5014805;28;20255;-67
2023/04/12 11:20:35;;;;;;;12.13;3.07;;;;;;;;;;4997360;28;20211;-68
2023/04/12 11:23:01;;;;;;;12.43;3.33;;;;;;;;;;5015039;28;20267;-68
2023/04/12 11:25:28;;;;;;;8.80;2.90;;;;;;;;;;5015025;28;20176;-67
2023/04/12 11:27:55;;;;;;;13.10;3.00;;;;;;;;;;5016306;28;20180;-68
2023/04/12 11:30:22;;;;;;;9.43;3.03;;;;;;;;;;5014806;28;20555;-68
2023/04/12 11:32:48;;;;;;;12.33;2.90;;;;;;;;;;5015355;28;20622;-68
2023/04/12 11:35:15;;;;;;;11.83;3.33;;;;;;;;;;5014894;28;20229;-68
2023/04/12 11:37:41;;;;;;;10.50;2.90;;;;;;;;;;5014674;28;20196;-68
2023/04/12 11:40:08;;;;;;;8.57;3.07;;;;;;;;;;5014547;28;20182;-68
2023/04/12 11:42:35;;;;;;;11.53;2.83;;;;;;;;;;5014519;28;20225;-68
2023/04/12 11:45:01;;;;;;;8.33;3.03;;;;;;;;;;5014668;28;20642;-68
2023/04/12 11:47:27;;;;;;;11.80;2.97;;;;;;;;;;5014664;28;20311;-69
2023/04/12 11:49:57;;;;;;;8.47;3.07;;;;;;;;;;5016202;28;20254;-70
2023/04/12 11:52:30;;;;;;;8.70;2.87;;;;;;;;;;5014574;28;20176;-68
2023/04/12 11:54:57;;;;;;;9.10;2.70;;;;;;;;;;5014348;28;20551;-68
2023/04/12 11:57:24;;;;;;;7.50;3.00;;;;;;;;;;5013850;28;20213;-68
2023/04/12 11:59:51;;;;;;;7.03;2.70;;;;;;;;;;5014169;28;20176;-68
2023/04/12 12:02:17;;;;;;;8.90;3.43;;;;;;;;;;5014227;28;20168;-68
2023/04/12 12:04:45;;;;;;;9.17;3.33;;;;;;;;;;5014491;28;20179;-68
2023/04/12 12:07:12;;;;;;;8.20;3.17;;;;;;;;;;4996748;28;20195;-68
2023/04/12 12:09:39;;;;;;;9.60;3.80;;;;;;;;;;5014318;28;20210;-68
2023/04/12 12:12:05;;;;;;;11.63;3.83;;;;;;;;;;5014255;28;20203;-68
2023/04/12 12:14:33;;;;;;;10.83;3.27;;;;;;;;;;5014000;28;20266;-68
2023/04/12 12:16:59;;;;;;;6.60;2.90;;;;;;;;;;4996321;28;20613;-68
2023/04/12 12:19:27;;;;;;;10.23;3.17;;;;;;;;;;5015670;28;20191;-68
2023/04/12 12:21:54;;;;;;;7.13;2.30;;;;;;;;;;5013271;28;20230;-68
2023/04/12 12:24:21;;;;;;;8.00;2.70;;;;;;;;;;5014140;28;20194;-68
2023/04/12 12:26:49;;;;;;;5.53;2.80;;;;;;;;;;5013809;28;20200;-69
2023/04/12 12:29:18;;;;;;;7.20;2.97;;;;;;;;;;4996148;28;20724;-68
2023/04/12 12:31:46;;;;;;;6.27;2.57;;;;;;;;;;4996080;28;20183;-68
2023/04/12 12:34:13;;;;;;;7.80;3.30;;;;;;;;;;5013905;28;20187;-68
2023/04/12 12:36:39;;;;;;;5.07;2.23;;;;;;;;;;5013778;28;20306;-68
2023/04/12 12:39:11;;;;;;;7.20;2.90;;;;;;;;;;5013965;28;20227;-68
2023/04/12 12:41:38;;;;;;;8.77;2.67;;;;;;;;;;5014206;28;20279;-68
2023/04/12 12:44:04;;;;;;;9.97;3.33;;;;;;;;;;4995942;28;20222;-68
2023/04/12 12:46:30;;;;;;;6.23;2.67;;;;;;;;;;5013446;28;20204;-68
2023/04/12 12:48:56;;;;;;;7.07;2.77;;;;;;;;;;5013526;28;20184;-68
2023/04/12 12:51:22;;;;;;;9.73;3.97;;;;;;;;;;5013390;28;20271;-68
2023/04/12 12:53:48;;;;;;;9.93;3.57;;;;;;;;;;5013736;28;20180;-68
2023/04/12 12:56:15;;;;;;;10.70;3.60;;;;;;;;;;5013326;28;20219;-69
2023/04/12 12:58:41;;;;;;;17.90;5.63;;;;;;;;;;4995677;28;20207;-68
2023/04/12 13:01:07;;;;;;;11.63;4.53;;;;;;;;;;4995685;28;20184;-68
2023/04/12 13:03:33;;;;;;;13.40;4.30;;;;;;;;;;5013579;28;20183;-68
2023/04/12 13:05:59;;;;;;;16.40;4.67;;;;;;;;;;5013451;28;20278;-68
2023/04/12 13:08:26;;;;;;;8.80;3.30;;;;;;;;;;5013361;28;20725;-68
2023/04/12 13:10:54;;;;;;;10.87;3.67;;;;;;;;;;5014369;28;20184;-68
2023/04/12 13:13:20;;;;;;;8.97;4.17;;;;;;;;;;4996087;28;20188;-68
2023/04/12 13:15:46;;;;;;;11.03;3.70;;;;;;;;;;5013232;28;20200;-68
2023/04/12 13:18:15;;;;;;;7.97;3.57;;;;;;;;;;5013449;28;20227;-68
2023/04/12 13:20:41;;;;;;;12.13;4.20;;;;;;;;;;5013127;28;20242;-68
2023/04/12 13:23:07;;;;;;;11.50;3.87;;;;;;;;;;4995526;28;20183;-68
2023/04/12 13:25:33;;;;;;;13.13;4.07;;;;;;;;;;4995600;28;20206;-68
2023/04/12 13:27:59;;;;;;;14.73;5.20;;;;;;;;;;5013204;28;20184;-67
2023/04/12 13:30:25;;;;;;;12.53;4.30;;;;;;;;;;4995442;28;20194;-68
2023/04/12 13:32:52;;;;;;;7.93;3.53;;;;;;;;;;5013818;28;20180;-67
2023/04/12 13:35:18;;;;;;;13.10;4.60;;;;;;;;;;5017239;28;20180;-68
2023/04/12 13:37:44;;;;;;;11.53;4.43;;;;;;;;;;4999013;28;20728;-68
2023/04/12 13:40:11;;;;;;;10.73;4.20;;;;;;;;;;4999140;28;20209;-68
2023/04/12 13:42:36;;;;;;;13.27;4.73;;;;;;;;;;4999062;28;20176;-67
2023/04/12 13:45:03;;;;;;;13.07;5.47;;;;;;;;;;5016802;28;20187;-68
2023/04/12 13:47:30;;;;;;;12.50;4.93;;;;;;;;;;5016653;28;20288;-68
2023/04/12 13:49:56;;;;;;;9.90;5.10;;;;;;;;;;5016704;28;20553;-68
2023/04/12 13:52:22;;;;;;;14.10;5.63;;;;;;;;;;5016667;28;20176;-68
2023/04/12 13:54:50;;;;;;;13.27;6.13;;;;;;;;;;5016939;28;20258;-68
2023/04/12 13:57:16;;;;;;;17.60;6.20;;;;;;;;;;5016842;28;20211;-67
2023/04/12 13:59:42;;;;;;;15.10;6.30;;;;;;;;;;4999456;28;20215;-68
2023/04/12 14:02:08;;;;;;;14.23;5.27;;;;;;;;;;5016749;28;20183;-67
2023/04/12 14:04:34;;;;;;;12.67;5.03;;;;;;;;;;5019588;28;20179;-68
2023/04/12 14:07:00;;;;;;;9.53;5.90;;;;;;;;;;5016660;28;20196;-68
2023/04/12 14:09:30;;;;;;;19.17;5.60;;;;;;;;;;5016331;28;20212;-67
2023/04/12 14:11:56;;;;;;;13.50;5.67;;;;;;;;;;5016798;28;20167;-67
2023/04/12 14:14:26;;;;;;;10.70;4.80;;;;;;;;;;5016163;28;20175;-68
2023/04/12 14:16:55;;;;;;;12.17;5.67;;;;;;;;;;5016032;28;20208;-67
2023/04/12 14:19:22;;;;;;;16.20;5.97;;;;;;;;;;5016103;28;20203;-68
2023/04/12 14:21:48;;;;;;;15.40;6.10;;;;;;;;;;4998543;28;20208;-67
2023/04/12 14:24:14;;;;;;;12.10;6.00;;;;;;;;;;5016116;28;20203;-67
2023/04/12 14:26:40;;;;;;;15.57;6.83;;;;;;;;;;5016011;28;20632;-68
2023/04/12 14:29:06;;;;;;;15.50;6.43;;;;;;;;;;5016159;28;20172;-67
2023/04/12 14:31:34;;;;;;;17.70;5.20;;;;;;;;;;5015987;28;20314;-67
2023/04/12 14:34:00;;;;;;;14.53;5.40;;;;;;;;;;4998151;28;20195;-67
2023/04/12 14:36:26;;;;;;;12.27;5.07;;;;;;;;;;4998062;28;20238;-67